createdAt,value
2018-02-24T00:00:58.015Z,0.00
2018-02-24T00:02:49.822Z,0.00
2018-02-24T00:03:49.666Z,0.00
2018-02-24T00:05:41.405Z,0.00
2018-02-24T00:06:41.324Z,0.00
2018-02-24T00:08:33.081Z,0.00
2018-02-24T00:09:33.009Z,0.00
2018-02-24T00:11:24.803Z,0.00
2018-02-24T00:12:24.712Z,0.00
2018-02-24T00:14:16.483Z,0.00
2018-02-24T00:15:16.399Z,0.00
2018-02-24T00:17:08.138Z,0.00
2018-02-24T00:18:08.049Z,0.00
2018-02-24T00:19:59.785Z,0.00
2018-02-24T00:20:59.711Z,0.00
2018-02-24T00:22:52.170Z,0.00
2018-02-24T00:23:51.533Z,0.00
2018-02-24T00:25:43.211Z,0.00
2018-02-24T00:26:43.124Z,0.00
2018-02-24T00:28:34.871Z,0.00
2018-02-24T00:29:34.815Z,0.00
2018-02-24T00:31:26.557Z,0.00
2018-02-24T00:32:26.508Z,0.00
2018-02-24T00:34:18.202Z,0.00
2018-02-24T00:35:18.129Z,0.00
2018-02-24T00:37:09.882Z,0.00
2018-02-24T00:38:09.793Z,0.00
2018-02-24T00:40:01.532Z,0.00
2018-02-24T00:41:01.457Z,0.00
2018-02-24T00:42:53.263Z,0.00
2018-02-24T00:43:53.175Z,0.00
2018-02-24T00:45:44.915Z,0.00
2018-02-24T00:46:44.880Z,0.00
2018-02-24T00:48:36.588Z,0.00
2018-02-24T00:49:36.504Z,0.00
2018-02-24T00:51:28.241Z,0.00
2018-02-24T00:52:28.158Z,0.00
2018-02-24T00:54:19.917Z,0.00
2018-02-24T00:55:19.824Z,0.00
2018-02-24T00:57:11.570Z,0.00
2018-02-24T00:58:11.497Z,0.00
2018-02-24T01:00:03.282Z,0.00
2018-02-24T01:01:03.187Z,0.00
2018-02-24T01:02:54.942Z,0.00
2018-02-24T01:03:54.859Z,0.00
2018-02-24T01:05:46.613Z,0.00
2018-02-24T01:06:46.534Z,0.00
2018-02-24T01:08:38.290Z,0.00
2018-02-24T01:09:38.249Z,0.00
2018-02-24T01:11:29.931Z,0.00
2018-02-24T01:12:29.859Z,0.00
2018-02-24T01:14:21.614Z,0.00
2018-02-24T01:15:21.542Z,0.00
2018-02-24T01:17:13.275Z,0.00
2018-02-24T01:18:13.195Z,0.00
2018-02-24T01:20:04.965Z,0.00
2018-02-24T01:21:04.865Z,0.00
2018-02-24T01:22:56.597Z,0.00
2018-02-24T01:23:56.524Z,0.00
2018-02-24T01:25:48.270Z,0.00
2018-02-24T01:26:48.183Z,0.00
2018-02-24T01:28:39.942Z,0.00
2018-02-24T01:29:39.859Z,0.00
2018-02-24T01:31:31.633Z,0.00
2018-02-24T01:32:31.542Z,0.00
2018-02-24T01:34:23.296Z,0.00
2018-02-24T01:35:23.212Z,0.00
2018-02-24T01:37:14.961Z,0.00
2018-02-24T01:38:14.875Z,0.00
2018-02-24T01:40:06.621Z,0.00
2018-02-24T01:41:06.534Z,0.00
2018-02-24T01:42:58.314Z,0.00
2018-02-24T01:43:58.217Z,0.00
2018-02-24T01:45:49.966Z,0.00
2018-02-24T01:46:49.880Z,0.00
2018-02-24T01:48:41.617Z,0.00
2018-02-24T01:49:41.550Z,0.00
2018-02-24T01:51:33.299Z,0.00
2018-02-24T01:52:33.229Z,0.00
2018-02-24T01:54:24.984Z,0.00
2018-02-24T01:55:24.906Z,0.00
2018-02-24T01:57:16.846Z,0.00
2018-02-24T01:58:16.579Z,0.00
2018-02-24T02:00:08.339Z,0.00
2018-02-24T02:01:08.256Z,0.00
2018-02-24T02:03:00.018Z,0.00
2018-02-24T02:03:59.933Z,0.00
2018-02-24T02:05:51.678Z,0.00
2018-02-24T02:06:51.608Z,0.00
2018-02-24T02:08:43.429Z,0.00
2018-02-24T02:09:43.340Z,0.00
2018-02-24T02:11:35.091Z,0.00
2018-02-24T02:12:35.008Z,0.00
2018-02-24T02:14:26.884Z,0.00
2018-02-24T02:15:26.682Z,0.00
2018-02-24T02:17:18.433Z,0.00
2018-02-24T02:18:18.357Z,0.00
2018-02-24T02:20:10.120Z,0.00
2018-02-24T02:21:10.021Z,0.00
2018-02-24T02:23:01.777Z,0.00
2018-02-24T02:24:01.692Z,0.00
2018-02-24T02:25:53.436Z,0.00
2018-02-24T02:26:53.365Z,0.00
2018-02-24T02:28:45.139Z,0.00
2018-02-24T02:29:45.044Z,0.00
2018-02-24T02:31:36.810Z,0.00
2018-02-24T02:32:36.729Z,0.00
2018-02-24T02:34:28.489Z,0.00
2018-02-24T02:35:28.405Z,0.00
2018-02-24T02:37:20.145Z,0.00
2018-02-24T02:38:20.067Z,0.00
2018-02-24T02:40:11.830Z,0.00
2018-02-24T02:41:11.748Z,0.00
2018-02-24T02:43:03.482Z,0.00
2018-02-24T02:44:03.459Z,0.00
2018-02-24T02:45:55.171Z,0.00
2018-02-24T02:46:55.093Z,0.00
2018-02-24T02:48:46.833Z,0.00
2018-02-24T02:49:46.774Z,0.00
2018-02-24T02:51:38.524Z,0.00
2018-02-24T02:52:38.418Z,0.00
2018-02-24T02:54:30.204Z,0.00
2018-02-24T02:55:30.107Z,0.00
2018-02-24T02:57:21.839Z,0.00
2018-02-24T02:58:21.769Z,0.00
2018-02-24T03:00:13.525Z,0.00
2018-02-24T03:01:13.449Z,0.00
2018-02-24T03:03:05.166Z,0.00
2018-02-24T03:04:05.106Z,0.00
2018-02-24T03:05:56.878Z,0.00
2018-02-24T03:06:56.797Z,0.00
2018-02-24T03:08:48.545Z,0.00
2018-02-24T03:09:48.458Z,0.00
2018-02-24T03:11:40.206Z,0.00
2018-02-24T03:12:40.121Z,0.00
2018-02-24T03:14:31.865Z,0.00
2018-02-24T03:15:31.796Z,0.00
2018-02-24T03:17:23.615Z,0.00
2018-02-24T03:18:23.510Z,0.00
2018-02-24T03:20:15.249Z,0.00
2018-02-24T03:21:15.177Z,0.00
2018-02-24T03:23:06.944Z,0.00
2018-02-24T03:24:06.859Z,0.00
2018-02-24T03:25:58.601Z,0.00
2018-02-24T03:26:58.537Z,0.00
2018-02-24T03:28:50.308Z,0.00
2018-02-24T03:29:50.214Z,0.00
2018-02-24T03:31:41.954Z,0.00
2018-02-24T03:32:41.880Z,0.00
2018-02-24T03:34:33.662Z,0.00
2018-02-24T03:35:33.583Z,0.00
2018-02-24T03:37:25.605Z,0.00
2018-02-24T03:38:25.244Z,0.00
2018-02-24T03:40:17.000Z,0.00
2018-02-24T03:41:16.916Z,0.00
2018-02-24T03:43:08.688Z,0.00
2018-02-24T03:44:08.583Z,0.00
2018-02-24T03:46:00.344Z,0.00
2018-02-24T03:47:00.268Z,0.00
2018-02-24T03:48:52.045Z,0.00
2018-02-24T03:49:51.976Z,0.00
2018-02-24T03:51:43.715Z,0.00
2018-02-24T03:52:43.643Z,0.00
2018-02-24T03:54:35.399Z,0.00
2018-02-24T03:55:35.299Z,0.00
2018-02-24T03:57:27.042Z,0.00
2018-02-24T03:58:26.961Z,0.00
2018-02-24T04:00:18.732Z,0.00
2018-02-24T04:01:18.637Z,0.00
2018-02-24T04:03:10.409Z,0.00
2018-02-24T04:04:10.333Z,0.00
2018-02-24T04:06:02.091Z,0.00
2018-02-24T04:07:02.016Z,0.00
2018-02-24T04:08:53.947Z,0.00
2018-02-24T04:09:53.785Z,0.00
2018-02-24T04:11:45.462Z,0.00
2018-02-24T04:12:45.350Z,0.00
2018-02-24T04:14:37.069Z,0.00
2018-02-24T04:15:37.001Z,0.00
2018-02-24T04:17:28.788Z,0.00
2018-02-24T04:18:28.698Z,0.00
2018-02-24T04:20:20.475Z,0.00
2018-02-24T04:21:20.368Z,0.00
2018-02-24T04:23:12.143Z,0.00
2018-02-24T04:24:12.199Z,0.00
2018-02-24T04:26:03.944Z,0.00
2018-02-24T04:27:03.864Z,0.00
2018-02-24T04:28:55.609Z,0.00
2018-02-24T04:29:55.529Z,0.00
2018-02-24T04:31:47.285Z,0.00
2018-02-24T04:32:47.239Z,0.00
2018-02-24T04:34:38.985Z,0.00
2018-02-24T04:35:38.901Z,0.00
2018-02-24T04:37:30.663Z,0.00
2018-02-24T04:38:30.574Z,0.00
2018-02-24T04:40:22.314Z,0.00
2018-02-24T04:41:22.298Z,0.00
2018-02-24T04:43:13.981Z,0.00
2018-02-24T04:44:13.897Z,0.00
2018-02-24T04:46:05.666Z,0.00
2018-02-24T04:47:05.706Z,0.00
2018-02-24T04:48:57.342Z,0.00
2018-02-24T04:49:57.313Z,0.00
2018-02-24T04:51:49.012Z,0.00
2018-02-24T04:52:48.977Z,0.00
2018-02-24T04:54:40.725Z,0.00
2018-02-24T04:55:40.618Z,0.00
2018-02-24T04:57:33.187Z,0.00
2018-02-24T04:58:32.328Z,0.00
2018-02-24T05:00:24.057Z,0.00
2018-02-24T05:01:23.988Z,0.00
2018-02-24T05:03:15.787Z,0.00
2018-02-24T05:04:15.824Z,0.00
2018-02-24T05:06:07.448Z,0.00
2018-02-24T05:07:07.500Z,0.00
2018-02-24T05:08:59.231Z,0.00
2018-02-24T05:09:59.181Z,0.00
2018-02-24T05:11:50.916Z,0.00
2018-02-24T05:12:50.834Z,0.00
2018-02-24T05:14:42.821Z,0.00
2018-02-24T05:15:42.589Z,0.00
2018-02-24T05:17:34.851Z,0.00
2018-02-24T05:18:34.380Z,0.00
2018-02-24T05:20:26.161Z,0.00
2018-02-24T05:21:26.073Z,0.00
2018-02-24T05:23:17.932Z,0.00
2018-02-24T05:24:17.889Z,0.00
2018-02-24T05:26:09.506Z,0.00
2018-02-24T05:27:09.499Z,0.00
2018-02-24T05:29:01.389Z,0.00
2018-02-24T05:30:01.261Z,0.00
2018-02-24T05:31:53.148Z,0.00
2018-02-24T05:32:52.874Z,0.00
2018-02-24T05:34:44.671Z,0.00
2018-02-24T05:35:44.858Z,0.00
2018-02-24T05:37:36.412Z,0.00
2018-02-24T05:38:36.520Z,0.00
2018-02-24T05:40:28.328Z,0.00
2018-02-24T05:41:28.144Z,0.00
2018-02-24T05:43:19.768Z,0.00
2018-02-24T05:44:19.756Z,0.00
2018-02-24T05:46:11.908Z,0.00
2018-02-24T05:47:11.710Z,0.00
2018-02-24T05:49:03.233Z,0.00
2018-02-24T05:50:03.185Z,0.00
2018-02-24T05:51:54.917Z,0.00
2018-02-24T05:52:54.789Z,0.00
2018-02-24T05:54:46.625Z,5.63
2018-02-24T05:55:46.571Z,5.63
2018-02-24T05:57:38.397Z,5.63
2018-02-24T05:58:38.304Z,11.25
2018-02-24T06:00:29.996Z,16.88
2018-02-24T06:01:29.981Z,16.88
2018-02-24T06:03:21.667Z,22.50
2018-02-24T06:04:21.622Z,28.13
2018-02-24T06:06:13.379Z,33.75
2018-02-24T06:07:13.384Z,39.38
2018-02-24T06:09:05.056Z,45.00
2018-02-24T06:10:04.945Z,45.00
2018-02-24T06:11:56.795Z,50.63
2018-02-24T06:12:56.625Z,50.63
2018-02-24T06:14:48.365Z,56.25
2018-02-24T06:15:48.284Z,61.88
2018-02-24T06:17:40.070Z,67.50
2018-02-24T06:18:39.965Z,73.13
2018-02-24T06:20:31.718Z,78.75
2018-02-24T06:21:31.666Z,84.38
2018-02-24T06:23:23.521Z,95.63
2018-02-24T06:24:23.441Z,95.63
2018-02-24T06:26:15.193Z,106.88
2018-02-24T06:27:15.105Z,106.88
2018-02-24T06:29:07.058Z,118.13
2018-02-24T06:30:06.913Z,118.13
2018-02-24T06:31:58.675Z,129.38
2018-02-24T06:32:58.533Z,129.38
2018-02-24T06:34:50.296Z,135.00
2018-02-24T06:35:50.200Z,140.63
2018-02-24T06:37:41.947Z,151.88
2018-02-24T06:38:41.860Z,151.88
2018-02-24T06:40:33.796Z,163.13
2018-02-24T06:41:33.537Z,163.13
2018-02-24T06:43:25.303Z,174.38
2018-02-24T06:44:25.301Z,180.00
2018-02-24T06:46:16.956Z,185.63
2018-02-24T06:47:16.887Z,185.63
2018-02-24T06:49:08.673Z,191.25
2018-02-24T06:50:08.564Z,191.25
2018-02-24T06:52:00.295Z,196.88
2018-02-24T06:53:00.240Z,196.88
2018-02-24T06:54:51.964Z,208.13
2018-02-24T06:55:51.883Z,219.38
2018-02-24T06:57:43.618Z,236.25
2018-02-24T06:58:43.543Z,236.25
2018-02-24T07:00:35.311Z,247.50
2018-02-24T07:01:35.214Z,258.75
2018-02-24T07:03:26.944Z,281.25
2018-02-24T07:04:26.870Z,292.50
2018-02-24T07:06:18.630Z,309.38
2018-02-24T07:07:18.547Z,320.63
2018-02-24T07:09:10.328Z,326.25
2018-02-24T07:10:10.230Z,337.50
2018-02-24T07:12:02.020Z,354.38
2018-02-24T07:13:01.899Z,360.00
2018-02-24T07:14:53.654Z,365.63
2018-02-24T07:15:53.576Z,371.25
2018-02-24T07:17:45.314Z,376.88
2018-02-24T07:18:45.246Z,376.88
2018-02-24T07:20:37.009Z,388.13
2018-02-24T07:21:36.942Z,393.75
2018-02-24T07:23:28.754Z,433.13
2018-02-24T07:24:28.602Z,725.63
2018-02-24T07:26:20.355Z,855.00
2018-02-24T07:27:20.271Z,601.88
2018-02-24T07:29:12.074Z,860.63
2018-02-24T07:30:12.012Z,579.38
2018-02-24T07:32:03.759Z,905.63
2018-02-24T07:33:03.678Z,956.25
2018-02-24T07:34:55.476Z,1423.13
2018-02-24T07:35:55.382Z,1485.00
2018-02-24T07:37:47.193Z,1755.00
2018-02-24T07:38:47.036Z,1563.75
2018-02-24T07:40:38.767Z,1321.88
2018-02-24T07:41:38.698Z,1620.00
2018-02-24T07:43:30.445Z,2070.00
2018-02-24T07:44:30.371Z,2683.13
2018-02-24T07:46:22.132Z,1591.88
2018-02-24T07:47:22.201Z,1440.00
2018-02-24T07:49:13.807Z,1490.63
2018-02-24T07:50:13.745Z,1586.25
2018-02-24T07:52:05.532Z,2238.75
2018-02-24T07:53:05.460Z,2289.38
2018-02-24T07:54:57.261Z,2171.25
2018-02-24T07:55:57.147Z,2559.38
2018-02-24T07:57:48.972Z,1923.75
2018-02-24T07:58:48.835Z,1850.63
2018-02-24T08:00:40.612Z,1771.88
2018-02-24T08:01:40.574Z,1940.63
2018-02-24T08:03:32.308Z,2666.25
2018-02-24T08:04:32.231Z,2902.50
2018-02-24T08:06:24.022Z,3116.25
2018-02-24T08:07:23.922Z,3189.38
2018-02-24T08:09:15.677Z,3588.75
2018-02-24T08:10:15.599Z,3661.88
2018-02-24T08:12:07.449Z,3296.25
2018-02-24T08:13:07.316Z,3493.13
2018-02-24T08:14:59.100Z,3414.38
2018-02-24T08:15:59.020Z,3178.13
2018-02-24T08:17:50.833Z,4021.88
2018-02-24T08:18:50.744Z,4055.63
2018-02-24T08:20:42.528Z,2244.38
2018-02-24T08:21:42.469Z,2671.88
2018-02-24T08:23:34.265Z,2874.38
2018-02-24T08:24:34.208Z,2508.75
2018-02-24T08:26:25.957Z,3110.63
2018-02-24T08:27:25.915Z,3105.00
2018-02-24T08:29:17.683Z,2694.38
2018-02-24T08:30:17.613Z,2508.75
2018-02-24T08:32:09.375Z,1850.63
2018-02-24T08:33:09.313Z,1580.63
2018-02-24T08:35:01.090Z,2160.00
2018-02-24T08:36:01.017Z,3363.75
2018-02-24T08:37:52.779Z,3099.38
2018-02-24T08:38:52.807Z,3988.13
2018-02-24T08:40:44.560Z,3847.50
2018-02-24T08:41:44.464Z,4623.75
2018-02-24T08:43:36.217Z,2756.25
2018-02-24T08:44:36.190Z,2570.63
2018-02-24T08:46:27.962Z,4185.00
2018-02-24T08:47:27.890Z,4483.13
2018-02-24T08:49:19.685Z,4066.88
2018-02-24T08:50:19.632Z,3656.25
2018-02-24T08:52:11.405Z,2992.50
2018-02-24T08:53:11.326Z,3448.13
2018-02-24T08:55:03.226Z,3988.13
2018-02-24T08:56:03.164Z,3763.13
2018-02-24T08:57:55.131Z,4196.25
2018-02-24T08:58:54.888Z,4387.50
2018-02-24T09:00:46.715Z,4758.75
2018-02-24T09:01:46.633Z,4494.38
2018-02-24T09:03:38.426Z,4235.63
2018-02-24T09:04:38.359Z,4494.38
2018-02-24T09:06:30.245Z,4471.88
2018-02-24T09:07:30.146Z,4241.25
2018-02-24T09:09:21.904Z,2677.50
2018-02-24T09:10:21.845Z,3993.75
2018-02-24T09:12:13.640Z,4140.00
2018-02-24T09:13:13.616Z,4455.00
2018-02-24T09:15:05.399Z,4646.25
2018-02-24T09:16:05.342Z,4111.88
2018-02-24T09:17:57.229Z,4303.13
2018-02-24T09:18:57.048Z,4685.63
2018-02-24T09:20:48.836Z,4595.63
2018-02-24T09:21:48.784Z,4595.63
2018-02-24T09:23:40.642Z,4381.88
2018-02-24T09:24:40.547Z,4123.13
2018-02-24T09:26:32.332Z,646.88
2018-02-24T09:27:32.368Z,601.88
2018-02-24T09:29:24.035Z,1125.00
2018-02-24T09:30:23.975Z,3701.25
2018-02-24T09:32:15.815Z,1096.88
2018-02-24T09:33:15.795Z,3892.50
2018-02-24T09:35:07.654Z,3273.75
2018-02-24T09:36:07.484Z,3768.75
2018-02-24T09:37:59.331Z,4078.13
2018-02-24T09:38:59.198Z,3375.00
2018-02-24T09:40:51.196Z,3481.88
2018-02-24T09:41:51.110Z,3622.50
2018-02-24T09:43:42.935Z,3656.25
2018-02-24T09:44:42.873Z,3290.63
2018-02-24T09:46:34.661Z,1653.75
2018-02-24T09:47:34.671Z,3093.75
2018-02-24T09:49:26.571Z,3178.13
2018-02-24T09:50:26.488Z,1411.88
2018-02-24T09:52:18.370Z,691.88
2018-02-24T09:53:18.259Z,663.75
2018-02-24T09:55:09.980Z,815.63
2018-02-24T09:56:09.924Z,967.50
2018-02-24T09:58:01.746Z,3105.00
2018-02-24T09:59:01.629Z,3217.50
2018-02-24T10:00:53.401Z,4066.88
2018-02-24T10:01:53.350Z,3830.63
2018-02-24T10:03:45.217Z,2700.00
2018-02-24T10:04:45.285Z,2058.75
2018-02-24T10:06:37.295Z,3335.63
2018-02-24T10:07:37.136Z,1479.38
2018-02-24T10:09:28.938Z,1170.00
2018-02-24T10:10:28.876Z,1271.25
2018-02-24T10:12:20.685Z,1715.63
2018-02-24T10:13:20.809Z,1715.63
2018-02-24T10:15:12.442Z,1771.88
2018-02-24T10:16:12.498Z,1366.88
2018-02-24T10:18:04.742Z,1130.63
2018-02-24T10:19:04.063Z,1220.63
2018-02-24T10:20:55.985Z,1445.63
2018-02-24T10:21:55.902Z,1383.75
2018-02-24T10:23:47.682Z,1102.50
2018-02-24T10:24:47.619Z,1372.50
2018-02-24T10:26:39.525Z,2030.63
2018-02-24T10:27:39.396Z,2385.00
2018-02-24T10:29:31.186Z,1411.88
2018-02-24T10:30:31.111Z,1378.13
2018-02-24T10:32:23.607Z,551.25
2018-02-24T10:33:22.816Z,596.25
2018-02-24T10:35:14.609Z,1299.38
2018-02-24T10:36:14.754Z,1440.00
2018-02-24T10:38:06.367Z,984.38
2018-02-24T10:39:06.260Z,607.50
2018-02-24T10:40:58.141Z,624.38
2018-02-24T10:41:58.053Z,1473.75
2018-02-24T10:43:49.864Z,1215.00
2018-02-24T10:44:49.819Z,618.75
2018-02-24T10:46:41.579Z,1051.88
2018-02-24T10:47:41.516Z,1355.63
2018-02-24T10:49:33.330Z,1085.63
2018-02-24T10:50:33.263Z,466.88
2018-02-24T10:52:25.063Z,945.00
2018-02-24T10:53:24.987Z,1288.13
2018-02-24T10:55:16.743Z,950.63
2018-02-24T10:56:16.686Z,804.38
2018-02-24T10:58:08.507Z,714.38
2018-02-24T10:59:08.436Z,1108.13
2018-02-24T11:01:00.201Z,1130.63
2018-02-24T11:02:00.270Z,1310.63
2018-02-24T11:03:51.906Z,1220.63
2018-02-24T11:04:51.807Z,1023.75
2018-02-24T11:06:43.587Z,703.13
2018-02-24T11:07:43.579Z,607.50
2018-02-24T11:09:35.459Z,596.25
2018-02-24T11:10:35.296Z,579.38
2018-02-24T11:12:27.118Z,590.63
2018-02-24T11:13:26.953Z,1755.00
2018-02-24T11:15:18.843Z,1029.38
2018-02-24T11:16:18.791Z,1080.00
2018-02-24T11:18:10.628Z,1524.38
2018-02-24T11:19:10.442Z,1445.63
2018-02-24T11:21:02.228Z,1603.13
2018-02-24T11:22:02.153Z,1766.25
2018-02-24T11:23:54.028Z,1631.25
2018-02-24T11:24:53.915Z,1665.00
2018-02-24T11:26:45.702Z,1732.50
2018-02-24T11:27:45.596Z,427.50
2018-02-24T11:29:37.575Z,832.50
2018-02-24T11:30:37.402Z,714.38
2018-02-24T11:32:29.190Z,624.38
2018-02-24T11:33:29.087Z,579.38
2018-02-24T11:35:20.903Z,590.63
2018-02-24T11:36:20.917Z,568.13
2018-02-24T11:38:12.597Z,714.38
2018-02-24T11:39:12.516Z,635.63
2018-02-24T11:41:04.406Z,686.25
2018-02-24T11:42:04.220Z,680.63
2018-02-24T11:43:56.116Z,506.25
2018-02-24T11:44:55.892Z,483.75
2018-02-24T11:46:47.911Z,472.50
2018-02-24T11:47:47.840Z,461.25
2018-02-24T11:49:39.696Z,450.00
2018-02-24T11:50:39.621Z,450.00
2018-02-24T11:52:31.393Z,461.25
2018-02-24T11:53:31.282Z,455.63
2018-02-24T11:55:23.093Z,455.63
2018-02-24T11:56:23.007Z,455.63
2018-02-24T11:58:14.855Z,455.63
2018-02-24T11:59:14.791Z,455.63
2018-02-24T12:01:06.625Z,461.25
2018-02-24T12:02:06.561Z,450.00
2018-02-24T12:03:58.233Z,438.75
2018-02-24T12:04:58.405Z,438.75
2018-02-24T12:06:50.055Z,433.13
2018-02-24T12:07:49.954Z,433.13
2018-02-24T12:09:42.006Z,427.50
2018-02-24T12:10:41.912Z,427.50
2018-02-24T12:12:33.658Z,427.50
2018-02-24T12:13:33.735Z,427.50
2018-02-24T12:15:25.542Z,433.13
2018-02-24T12:16:25.330Z,438.75
2018-02-24T12:18:17.229Z,461.25
2018-02-24T12:19:17.043Z,466.88
2018-02-24T12:21:08.934Z,495.00
2018-02-24T12:22:08.749Z,500.63
2018-02-24T12:24:00.498Z,517.50
2018-02-24T12:25:00.408Z,517.50
2018-02-24T12:26:52.336Z,495.00
2018-02-24T12:27:52.257Z,483.75
2018-02-24T12:29:44.008Z,478.13
2018-02-24T12:30:43.936Z,478.13
2018-02-24T12:32:35.754Z,511.88
2018-02-24T12:33:35.676Z,517.50
2018-02-24T12:35:27.449Z,545.63
2018-02-24T12:36:27.433Z,545.63
2018-02-24T12:38:19.178Z,517.50
2018-02-24T12:39:19.080Z,540.00
2018-02-24T12:41:10.811Z,540.00
2018-02-24T12:42:10.733Z,416.25
2018-02-24T12:44:02.533Z,371.25
2018-02-24T12:45:02.448Z,489.38
2018-02-24T12:46:54.262Z,534.38
2018-02-24T12:47:54.323Z,545.63
2018-02-24T12:49:46.019Z,506.25
2018-02-24T12:50:45.914Z,388.13
2018-02-24T12:52:37.716Z,478.13
2018-02-24T12:53:37.640Z,354.38
2018-02-24T12:55:29.734Z,348.75
2018-02-24T12:56:29.482Z,489.38
2018-02-24T12:58:21.241Z,466.88
2018-02-24T12:59:21.161Z,444.38
2018-02-24T13:01:13.003Z,438.75
2018-02-24T13:02:12.983Z,528.75
2018-02-24T13:04:04.673Z,556.88
2018-02-24T13:05:04.563Z,551.25
2018-02-24T13:06:56.445Z,478.13
2018-02-24T13:07:56.336Z,410.63
2018-02-24T13:09:48.081Z,376.88
2018-02-24T13:10:48.033Z,433.13
2018-02-24T13:12:39.993Z,365.63
2018-02-24T13:13:39.772Z,360.00
2018-02-24T13:15:31.593Z,466.88
2018-02-24T13:16:31.515Z,438.75
2018-02-24T13:18:23.228Z,348.75
2018-02-24T13:19:23.148Z,326.25
2018-02-24T13:21:14.956Z,450.00
2018-02-24T13:22:14.876Z,298.13
2018-02-24T13:24:06.704Z,309.38
2018-02-24T13:25:06.594Z,303.75
2018-02-24T13:26:58.322Z,348.75
2018-02-24T13:27:58.259Z,455.63
2018-02-24T13:29:50.018Z,348.75
2018-02-24T13:30:49.932Z,326.25
2018-02-24T13:32:41.800Z,427.50
2018-02-24T13:33:41.675Z,438.75
2018-02-24T13:35:33.531Z,455.63
2018-02-24T13:36:33.445Z,461.25
2018-02-24T13:38:25.359Z,444.38
2018-02-24T13:39:25.134Z,438.75
2018-02-24T13:41:16.879Z,376.88
2018-02-24T13:42:16.804Z,264.38
2018-02-24T13:44:08.572Z,343.13
2018-02-24T13:45:08.486Z,450.00
2018-02-24T13:47:00.231Z,410.63
2018-02-24T13:48:00.219Z,433.13
2018-02-24T13:49:51.951Z,433.13
2018-02-24T13:50:51.897Z,427.50
2018-02-24T13:52:43.609Z,410.63
2018-02-24T13:53:43.540Z,281.25
2018-02-24T13:55:35.597Z,365.63
2018-02-24T13:56:35.233Z,421.88
2018-02-24T13:58:27.187Z,388.13
2018-02-24T13:59:26.923Z,421.88
2018-02-24T14:01:18.718Z,416.25
2018-02-24T14:02:18.643Z,416.25
2018-02-24T14:04:10.457Z,416.25
2018-02-24T14:05:10.301Z,410.63
2018-02-24T14:07:02.102Z,410.63
2018-02-24T14:08:02.159Z,410.63
2018-02-24T14:09:53.789Z,410.63
2018-02-24T14:10:53.728Z,416.25
2018-02-24T14:12:45.487Z,421.88
2018-02-24T14:13:45.419Z,416.25
2018-02-24T14:15:37.177Z,416.25
2018-02-24T14:16:37.096Z,421.88
2018-02-24T14:18:28.869Z,410.63
2018-02-24T14:19:28.789Z,410.63
2018-02-24T14:21:20.592Z,405.00
2018-02-24T14:22:20.478Z,399.38
2018-02-24T14:24:12.261Z,399.38
2018-02-24T14:25:12.198Z,393.75
2018-02-24T14:27:03.954Z,393.75
2018-02-24T14:28:03.873Z,360.00
2018-02-24T14:29:55.645Z,360.00
2018-02-24T14:30:55.561Z,376.88
2018-02-24T14:32:47.310Z,393.75
2018-02-24T14:33:47.338Z,416.25
2018-02-24T14:35:39.021Z,405.00
2018-02-24T14:36:38.926Z,371.25
2018-02-24T14:38:31.290Z,236.25
2018-02-24T14:39:30.721Z,219.38
2018-02-24T14:41:22.485Z,208.13
2018-02-24T14:42:22.396Z,326.25
2018-02-24T14:44:14.171Z,320.63
2018-02-24T14:45:14.147Z,191.25
2018-02-24T14:47:05.933Z,303.75
2018-02-24T14:48:05.836Z,315.00
2018-02-24T14:49:57.587Z,253.13
2018-02-24T14:50:57.516Z,298.13
2018-02-24T14:52:49.318Z,303.75
2018-02-24T14:53:49.264Z,298.13
2018-02-24T14:55:40.988Z,286.88
2018-02-24T14:56:40.950Z,286.88
2018-02-24T14:58:32.682Z,292.50
2018-02-24T14:59:32.589Z,292.50
2018-02-24T15:01:24.412Z,286.88
2018-02-24T15:02:24.270Z,286.88
2018-02-24T15:04:16.107Z,281.25
2018-02-24T15:05:16.038Z,275.63
2018-02-24T15:07:07.814Z,275.63
2018-02-24T15:08:07.706Z,270.00
2018-02-24T15:09:59.577Z,270.00
2018-02-24T15:10:59.487Z,270.00
2018-02-24T15:12:51.269Z,270.00
2018-02-24T15:13:51.174Z,270.00
2018-02-24T15:15:42.909Z,264.38
2018-02-24T15:16:42.840Z,258.75
2018-02-24T15:18:34.659Z,247.50
2018-02-24T15:19:34.567Z,241.88
2018-02-24T15:21:26.375Z,230.63
2018-02-24T15:22:26.254Z,225.00
2018-02-24T15:24:18.024Z,225.00
2018-02-24T15:25:17.956Z,219.38
2018-02-24T15:27:09.701Z,213.75
2018-02-24T15:28:09.633Z,213.75
2018-02-24T15:30:01.426Z,202.50
2018-02-24T15:31:01.330Z,191.25
2018-02-24T15:32:53.108Z,163.13
2018-02-24T15:33:53.033Z,157.50
2018-02-24T15:35:45.169Z,157.50
2018-02-24T15:36:44.787Z,180.00
2018-02-24T15:38:36.472Z,185.63
2018-02-24T15:39:36.376Z,180.00
2018-02-24T15:41:28.130Z,180.00
2018-02-24T15:42:28.054Z,174.38
2018-02-24T15:44:19.871Z,168.75
2018-02-24T15:45:19.738Z,168.75
2018-02-24T15:47:11.509Z,163.13
2018-02-24T15:48:11.436Z,157.50
2018-02-24T15:50:03.273Z,157.50
2018-02-24T15:51:03.184Z,151.88
2018-02-24T15:52:54.928Z,146.25
2018-02-24T15:53:54.848Z,146.25
2018-02-24T15:55:46.954Z,146.25
2018-02-24T15:56:46.893Z,140.63
2018-02-24T15:58:38.627Z,135.00
2018-02-24T15:59:38.548Z,129.38
2018-02-24T16:01:30.371Z,118.13
2018-02-24T16:02:30.280Z,118.13
2018-02-24T16:04:22.027Z,101.25
2018-02-24T16:05:21.960Z,95.63
2018-02-24T16:07:13.755Z,90.00
2018-02-24T16:08:13.629Z,84.38
2018-02-24T16:10:05.453Z,78.75
2018-02-24T16:11:05.487Z,73.13
2018-02-24T16:12:57.163Z,67.50
2018-02-24T16:13:57.024Z,61.88
2018-02-24T16:15:48.802Z,56.25
2018-02-24T16:16:48.931Z,56.25
2018-02-24T16:18:40.464Z,50.63
2018-02-24T16:19:40.394Z,45.00
2018-02-24T16:21:32.167Z,39.38
2018-02-24T16:22:32.091Z,39.38
2018-02-24T16:24:23.905Z,33.75
2018-02-24T16:25:23.790Z,33.75
2018-02-24T16:27:15.560Z,28.13
2018-02-24T16:28:15.474Z,28.13
2018-02-24T16:30:07.229Z,22.50
2018-02-24T16:31:07.140Z,22.50
2018-02-24T16:32:59.015Z,16.88
2018-02-24T16:33:58.939Z,16.88
2018-02-24T16:35:50.711Z,11.25
2018-02-24T16:36:50.631Z,11.25
2018-02-24T16:38:42.397Z,11.25
2018-02-24T16:39:42.311Z,11.25
2018-02-24T16:41:34.060Z,5.63
2018-02-24T16:42:33.973Z,5.63
2018-02-24T16:44:25.725Z,5.63
2018-02-24T16:45:25.648Z,5.63
2018-02-24T16:47:17.400Z,0.00
2018-02-24T16:48:17.310Z,0.00
2018-02-24T16:50:09.116Z,0.00
2018-02-24T16:51:09.013Z,0.00
2018-02-24T16:53:00.979Z,0.00
2018-02-24T16:54:00.783Z,0.00
2018-02-24T16:55:52.620Z,0.00
2018-02-24T16:56:52.548Z,0.00
2018-02-24T16:58:44.375Z,0.00
2018-02-24T16:59:44.236Z,0.00
2018-02-24T17:01:36.049Z,0.00
2018-02-24T17:02:36.017Z,0.00
2018-02-24T17:04:29.400Z,0.00
2018-02-24T17:05:27.633Z,0.00
2018-02-24T17:07:19.362Z,0.00
2018-02-24T17:08:19.294Z,0.00
2018-02-24T17:10:11.138Z,0.00
2018-02-24T17:11:11.038Z,0.00
2018-02-24T17:13:02.807Z,0.00
2018-02-24T17:14:02.703Z,0.00
2018-02-24T17:15:54.444Z,0.00
2018-02-24T17:16:54.422Z,0.00
2018-02-24T17:18:46.178Z,0.00
2018-02-24T17:19:46.120Z,0.00
2018-02-24T17:21:37.834Z,0.00
2018-02-24T17:22:37.781Z,0.00
2018-02-24T17:24:29.713Z,0.00
2018-02-24T17:25:29.437Z,0.00
2018-02-24T17:27:21.178Z,0.00
2018-02-24T17:28:21.110Z,0.00
2018-02-24T17:30:13.049Z,0.00
2018-02-24T17:31:12.956Z,0.00
2018-02-24T17:33:04.716Z,0.00
2018-02-24T17:34:04.642Z,0.00
2018-02-24T17:35:56.761Z,0.00
2018-02-24T17:36:56.345Z,0.00
2018-02-24T17:38:48.362Z,0.00
2018-02-24T17:39:48.042Z,0.00
2018-02-24T17:41:39.799Z,0.00
2018-02-24T17:42:39.692Z,0.00
2018-02-24T17:44:31.480Z,0.00
2018-02-24T17:45:31.370Z,0.00
2018-02-24T17:47:23.261Z,0.00
2018-02-24T17:48:23.067Z,0.00
2018-02-24T17:50:14.869Z,0.00
2018-02-24T17:51:14.776Z,0.00
2018-02-24T17:53:06.792Z,0.00
2018-02-24T17:54:06.547Z,0.00
2018-02-24T17:55:58.301Z,0.00
2018-02-24T17:56:58.213Z,0.00
2018-02-24T17:58:49.956Z,0.00
2018-02-24T17:59:49.920Z,0.00
2018-02-24T18:01:41.878Z,0.00
2018-02-24T18:02:41.626Z,0.00
2018-02-24T18:04:33.332Z,0.00
2018-02-24T18:05:33.205Z,0.00
2018-02-24T18:07:26.598Z,0.00
2018-02-24T18:08:25.006Z,0.00
2018-02-24T18:10:16.876Z,0.00
2018-02-24T18:11:16.712Z,0.00
2018-02-24T18:13:08.457Z,0.00
2018-02-24T18:14:08.461Z,0.00
2018-02-24T18:16:00.173Z,0.00